Archival Weather

Sydney Intl

Sydney, Australia (YSSY)

Report from: Friday, September 22, 2023 12:55 AM AEST
Current time: Sunday, February 25, 2024 3:12 AM AEDT

Current weather – Weather history – Daily summaries
Weather forecast

Present weatherHeavy rain showers
Temperature13.0°C (55.4°F)
Dew point11.0°C (51.8°F)
Winds 18 kts (9.3 m/s, 20.7 mph) Vrb
Wind gusts 29 kts (14.9 m/s, 33.4 mph)
Winds variableWinds variable from South (180°) to West-Southwest (240°)
Visibility3 mi. (4.8 km)
Clouds Scattered clouds 2,700 ft. (823 m)
Scattered clouds 3,300 ft. (1,006 m)
Ceiling: Broken clouds 4,100 ft. (1,250 m)
Altimeter30.30 in.Hg (1026 mB)
Relative humidity88 %
Density altitude-483 ft. (-147 m)
Remarks Fully automated report
Special weather observation
Flight conditions Instrument Meteorological Conditions
Raw dataSPAU31 KWBC 211458 SPECI YSSY 211455Z AUTO 21018G29KT 180V240 4800 +SHRA SCT027 SCT033 BKN041 13/11 Q1026
An error has occurred. This application may no longer respond until reloaded. Reload 🗙